createdAt,value
2023-05-31T00:01:32.458Z,59.25
2023-05-31T00:04:00.713Z,60.33
2023-05-31T00:06:29.279Z,60.63
2023-05-31T00:08:57.419Z,60.61
2023-05-31T00:11:27.700Z,60.32
2023-05-31T00:13:56.096Z,59.82
2023-05-31T00:18:55.453Z,63.64
2023-05-31T00:21:27.174Z,65.84
2023-05-31T00:23:55.200Z,65.32
2023-05-31T00:26:23.514Z,61.44
2023-05-31T00:28:52.907Z,62.61
2023-05-31T00:31:21.098Z,63.11
2023-05-31T00:33:49.680Z,62.33
2023-05-31T00:36:17.915Z,60.82
2023-05-31T00:38:46.207Z,60.00
2023-05-31T00:41:14.340Z,56.20
2023-05-31T00:43:43.051Z,54.69
2023-05-31T00:46:18.116Z,55.30
2023-05-31T00:48:46.726Z,54.81
2023-05-31T00:51:14.893Z,56.20
2023-05-31T00:53:44.864Z,58.05
2023-05-31T00:56:16.313Z,59.50
2023-05-31T00:58:44.443Z,60.31
2023-05-31T01:01:14.476Z,62.39
2023-05-31T01:03:42.824Z,64.84
2023-05-31T01:06:11.561Z,65.22
2023-05-31T01:08:40.861Z,63.78
2023-05-31T01:11:24.072Z,62.70
2023-05-31T01:14:17.487Z,61.35
2023-05-31T01:16:55.920Z,60.48
2023-05-31T01:19:38.101Z,59.26
2023-05-31T01:22:21.700Z,55.62
2023-05-31T01:25:15.359Z,55.08
2023-05-31T01:27:43.748Z,54.88
2023-05-31T01:30:11.842Z,56.24
2023-05-31T01:32:39.951Z,56.72
2023-05-31T01:35:08.728Z,58.24
2023-05-31T01:37:38.609Z,58.38
2023-05-31T01:40:08.602Z,58.53
2023-05-31T01:42:37.183Z,60.95
2023-05-31T01:45:06.163Z,60.58
2023-05-31T01:47:34.323Z,63.17
2023-05-31T01:50:02.968Z,67.10
2023-05-31T01:52:31.089Z,65.79
2023-05-31T01:54:59.949Z,65.69
2023-05-31T01:57:28.143Z,65.32
2023-05-31T01:59:56.270Z,64.75
2023-05-31T02:02:24.397Z,62.93
2023-05-31T02:05:09.729Z,59.31
2023-05-31T02:07:39.523Z,56.43
2023-05-31T02:10:08.500Z,56.05
2023-05-31T02:12:38.222Z,55.35
2023-05-31T02:15:14.205Z,55.14
2023-05-31T02:17:45.937Z,56.81
2023-05-31T02:20:14.865Z,57.81
2023-05-31T02:22:46.556Z,58.34
2023-05-31T02:25:15.220Z,62.78
2023-05-31T02:27:43.806Z,67.60
2023-05-31T02:30:12.464Z,67.84
2023-05-31T02:32:41.193Z,65.99
2023-05-31T02:35:10.997Z,64.39
2023-05-31T02:37:39.952Z,62.48
2023-05-31T02:40:09.672Z,61.82
2023-05-31T02:42:41.585Z,61.32
2023-05-31T02:45:10.975Z,58.94
2023-05-31T02:47:39.935Z,54.52
2023-05-31T02:50:09.472Z,53.15
2023-05-31T02:52:40.225Z,53.10
2023-05-31T02:55:40.711Z,54.34
2023-05-31T02:58:21.024Z,56.29
2023-05-31T03:01:16.189Z,57.55
2023-05-31T03:04:02.481Z,58.75
2023-05-31T03:06:33.401Z,58.94
2023-05-31T03:09:05.193Z,59.37
2023-05-31T03:11:35.494Z,60.71
2023-05-31T03:14:04.476Z,60.89
2023-05-31T03:16:53.652Z,61.14
2023-05-31T03:19:22.641Z,63.40
2023-05-31T03:21:54.074Z,66.33
2023-05-31T03:24:22.867Z,67.02
2023-05-31T03:26:53.296Z,63.42
2023-05-31T03:29:22.289Z,58.40
2023-05-31T03:31:51.672Z,55.64
2023-05-31T03:34:23.207Z,55.33
2023-05-31T03:36:53.056Z,56.00
2023-05-31T03:39:40.896Z,57.55
2023-05-31T03:42:11.995Z,58.03
2023-05-31T03:44:40.979Z,56.58
2023-05-31T03:47:09.948Z,56.92
2023-05-31T03:49:38.914Z,58.53
2023-05-31T03:52:10.623Z,57.24
2023-05-31T03:54:39.655Z,57.77
2023-05-31T03:57:09.163Z,58.68
2023-05-31T03:59:37.890Z,59.23
2023-05-31T04:02:06.663Z,60.30
2023-05-31T04:04:35.725Z,59.29
2023-05-31T04:07:05.434Z,58.68
2023-05-31T04:09:35.028Z,59.08
2023-05-31T04:12:05.149Z,60.72
2023-05-31T04:14:34.129Z,59.13
2023-05-31T04:17:04.036Z,58.99
2023-05-31T04:19:32.581Z,58.78
2023-05-31T04:22:28.724Z,57.82
2023-05-31T04:24:57.224Z,57.54
2023-05-31T04:27:33.436Z,52.94
2023-05-31T04:30:19.663Z,50.73
2023-05-31T04:32:53.698Z,46.95
2023-05-31T04:35:44.513Z,44.18
2023-05-31T04:38:13.270Z,42.71
2023-05-31T04:41:01.958Z,38.24
2023-05-31T04:43:31.190Z,36.51
2023-05-31T04:46:01.809Z,35.01
2023-05-31T04:48:30.910Z,33.87
2023-05-31T04:51:33.008Z,37.53
2023-05-31T04:54:21.913Z,30.94
2023-05-31T04:57:17.033Z,29.36
2023-05-31T04:59:48.722Z,27.76
2023-05-31T05:02:28.345Z,27.10
2023-05-31T05:05:37.882Z,26.27
2023-05-31T05:08:06.754Z,26.00
2023-05-31T05:10:59.110Z,25.35
2023-05-31T05:14:44.262Z,27.55
2023-05-31T05:18:05.426Z,25.55
2023-05-31T05:20:37.101Z,26.19
2023-05-31T05:23:08.519Z,26.53
2023-05-31T05:25:56.990Z,24.63
2023-05-31T05:28:26.408Z,25.52
2023-05-31T05:30:54.638Z,24.89
2023-05-31T05:33:27.725Z,27.26
2023-05-31T05:35:56.481Z,27.09
2023-05-31T05:38:49.505Z,26.39
2023-05-31T05:41:19.513Z,25.16
2023-05-31T05:43:47.767Z,24.89
2023-05-31T05:46:18.514Z,24.75
2023-05-31T05:48:47.232Z,27.70
2023-05-31T05:51:18.452Z,25.56
2023-05-31T05:53:46.937Z,24.62
2023-05-31T05:56:35.815Z,25.78
2023-05-31T05:59:07.242Z,26.50
2023-05-31T06:01:57.168Z,26.93
2023-05-31T06:04:26.191Z,25.27
2023-05-31T06:06:57.867Z,25.81
2023-05-31T06:09:31.439Z,26.48
2023-05-31T06:11:59.816Z,24.99
2023-05-31T06:14:31.079Z,26.17
2023-05-31T06:16:59.813Z,25.22
2023-05-31T06:19:28.756Z,25.49
2023-05-31T06:22:17.807Z,25.18
2023-05-31T06:24:47.932Z,25.06
2023-05-31T06:27:21.345Z,25.37
2023-05-31T06:29:56.104Z,24.43
2023-05-31T06:32:43.131Z,24.46
2023-05-31T06:35:15.219Z,24.57
2023-05-31T06:37:44.238Z,24.21
2023-05-31T06:40:32.089Z,24.04
2023-05-31T06:43:03.759Z,23.72
2023-05-31T06:45:53.757Z,24.03
2023-05-31T06:48:22.183Z,25.37
2023-05-31T06:51:29.293Z,25.67
2023-05-31T06:54:25.495Z,25.27
2023-05-31T06:57:13.973Z,24.37
2023-05-31T07:00:08.700Z,24.83
2023-05-31T07:02:57.399Z,25.27
2023-05-31T07:05:46.828Z,24.97
2023-05-31T07:08:26.339Z,25.18
2023-05-31T07:12:04.213Z,24.55
2023-05-31T07:14:43.967Z,24.59
2023-05-31T07:17:51.765Z,23.79
2023-05-31T07:20:50.806Z,23.69
2023-05-31T07:23:19.365Z,24.48
2023-05-31T07:25:47.900Z,24.52
2023-05-31T07:29:37.446Z,23.93
2023-05-31T07:32:37.346Z,23.66
2023-05-31T07:36:41.469Z,22.86
2023-05-31T07:40:33.161Z,23.92
2023-05-31T07:43:27.504Z,23.78
2023-05-31T07:46:06.382Z,24.66
2023-05-31T07:49:00.199Z,24.04
2023-05-31T07:52:49.839Z,23.15
2023-05-31T07:56:09.695Z,23.73
2023-05-31T07:59:31.972Z,22.83
2023-05-31T08:03:06.629Z,22.86
2023-05-31T08:05:45.032Z,22.16
2023-05-31T08:08:14.563Z,21.79
2023-05-31T08:10:43.431Z,21.56
2023-05-31T08:13:15.250Z,22.37
2023-05-31T08:15:54.027Z,22.64
2023-05-31T08:18:25.998Z,24.15
2023-05-31T08:20:54.497Z,23.12
2023-05-31T08:24:24.439Z,23.84
2023-05-31T08:26:53.226Z,23.77
2023-05-31T08:29:48.310Z,23.07
2023-05-31T08:32:32.706Z,20.19
2023-05-31T08:35:44.846Z,21.64
2023-05-31T08:38:34.806Z,23.23
2023-05-31T08:41:27.359Z,23.09
2023-05-31T08:44:00.281Z,23.21
2023-05-31T08:46:50.102Z,24.14
2023-05-31T08:49:18.736Z,24.95
2023-05-31T08:51:49.836Z,25.19
2023-05-31T08:55:32.150Z,25.47
2023-05-31T08:58:39.271Z,26.80
2023-05-31T09:01:08.022Z,28.02
2023-05-31T09:03:40.271Z,28.42
2023-05-31T09:06:11.907Z,29.49
2023-05-31T09:08:51.257Z,28.27
2023-05-31T09:11:29.051Z,28.77
2023-05-31T09:14:00.286Z,30.30
2023-05-31T09:16:28.881Z,30.67
2023-05-31T09:19:44.792Z,30.17
2023-05-31T09:22:37.816Z,29.71
2023-05-31T09:25:12.371Z,30.13
2023-05-31T09:27:40.722Z,30.08
2023-05-31T09:31:32.719Z,30.82
2023-05-31T09:34:01.182Z,30.01
2023-05-31T09:36:45.354Z,29.67
2023-05-31T09:39:18.614Z,29.80
2023-05-31T09:41:52.529Z,29.60
2023-05-31T09:45:04.047Z,30.06
2023-05-31T09:47:32.292Z,30.30
2023-05-31T09:50:00.548Z,30.83
2023-05-31T09:52:32.317Z,30.47
2023-05-31T09:55:06.730Z,30.06
2023-05-31T09:57:46.572Z,31.11
2023-05-31T10:00:19.371Z,31.61
2023-05-31T10:02:53.467Z,31.85
2023-05-31T10:05:22.252Z,32.90
2023-05-31T10:07:54.331Z,32.40
2023-05-31T10:10:23.139Z,31.86
2023-05-31T10:13:04.089Z,32.00
2023-05-31T10:15:33.337Z,31.16
2023-05-31T10:18:17.275Z,32.19
2023-05-31T10:21:12.681Z,32.04
2023-05-31T10:23:45.232Z,32.59
2023-05-31T10:26:18.715Z,31.58
2023-05-31T10:29:14.729Z,31.86
2023-05-31T10:31:48.435Z,31.24
2023-05-31T10:34:24.400Z,30.99
2023-05-31T10:36:55.055Z,30.94
2023-05-31T10:39:40.941Z,30.80
2023-05-31T10:42:21.089Z,31.08
2023-05-31T10:45:06.912Z,31.01
2023-05-31T10:48:15.702Z,30.93
2023-05-31T10:51:02.548Z,29.69
2023-05-31T10:53:32.645Z,30.40
2023-05-31T10:56:10.417Z,30.68
2023-05-31T10:58:42.777Z,30.61
2023-05-31T11:01:15.308Z,30.36
2023-05-31T11:03:51.456Z,30.25
2023-05-31T11:06:40.109Z,30.38
2023-05-31T11:09:18.229Z,30.52
2023-05-31T11:11:50.628Z,29.61
2023-05-31T11:14:27.123Z,29.62
2023-05-31T11:16:58.184Z,29.88
2023-05-31T11:19:30.829Z,29.74
2023-05-31T11:22:08.267Z,29.83
2023-05-31T11:24:51.861Z,29.65
2023-05-31T11:27:26.556Z,29.83
2023-05-31T11:29:54.868Z,29.98
2023-05-31T11:32:44.018Z,30.19
2023-05-31T11:35:16.581Z,30.83
2023-05-31T11:37:44.957Z,30.52
2023-05-31T11:40:16.907Z,29.86
2023-05-31T11:42:46.924Z,30.45
2023-05-31T11:45:24.553Z,31.24
2023-05-31T11:48:21.527Z,31.69
2023-05-31T11:50:49.717Z,30.60
2023-05-31T11:53:17.950Z,30.61
2023-05-31T11:55:49.882Z,30.73
2023-05-31T11:58:22.232Z,30.81
2023-05-31T12:00:53.197Z,31.03
2023-05-31T12:03:24.066Z,31.05
2023-05-31T12:05:52.885Z,30.78
2023-05-31T12:08:21.120Z,30.79
2023-05-31T12:10:49.375Z,30.53
2023-05-31T12:13:18.602Z,31.14
2023-05-31T12:15:57.412Z,31.10
2023-05-31T12:18:25.922Z,31.11
2023-05-31T12:20:54.343Z,30.70
2023-05-31T12:23:22.722Z,30.70
2023-05-31T12:25:51.832Z,30.68
2023-05-31T12:28:21.578Z,31.23
2023-05-31T12:30:52.657Z,31.26
2023-05-31T12:33:21.240Z,31.61
2023-05-31T12:35:49.633Z,31.21
2023-05-31T12:38:18.204Z,32.19
2023-05-31T12:40:46.651Z,31.96
2023-05-31T12:43:22.329Z,32.66
2023-05-31T12:45:54.347Z,32.79
2023-05-31T12:48:44.524Z,32.52
2023-05-31T12:51:12.961Z,32.13
2023-05-31T12:53:41.921Z,32.50
2023-05-31T12:56:12.540Z,32.27
2023-05-31T12:58:41.168Z,33.08
2023-05-31T13:01:09.519Z,32.24
2023-05-31T13:03:40.409Z,32.81
2023-05-31T13:06:08.841Z,32.35
2023-05-31T13:08:37.622Z,32.50
2023-05-31T13:11:05.877Z,32.11
2023-05-31T13:14:26.105Z,31.60
2023-05-31T13:16:55.715Z,31.39
2023-05-31T13:19:24.134Z,30.91
2023-05-31T13:21:52.517Z,30.83
2023-05-31T13:24:20.951Z,30.47
2023-05-31T13:26:49.248Z,31.02
2023-05-31T13:29:18.041Z,31.00
2023-05-31T13:31:46.989Z,30.70
2023-05-31T13:34:15.510Z,30.75
2023-05-31T13:36:47.558Z,30.75
2023-05-31T13:39:15.939Z,30.59
2023-05-31T13:41:44.601Z,30.75
2023-05-31T13:44:14.122Z,29.97
2023-05-31T13:46:43.611Z,29.99
2023-05-31T13:49:14.539Z,29.97
2023-05-31T13:51:43.382Z,30.01
2023-05-31T13:54:11.412Z,30.34
2023-05-31T13:56:39.488Z,30.48
2023-05-31T13:59:10.545Z,30.61
2023-05-31T14:01:38.487Z,30.90
2023-05-31T14:04:06.553Z,31.29
2023-05-31T14:06:34.705Z,31.39
2023-05-31T14:09:02.556Z,32.18
2023-05-31T14:11:30.347Z,32.57
2023-05-31T14:13:58.664Z,32.66
2023-05-31T14:16:28.688Z,32.90
2023-05-31T14:18:56.746Z,32.44
2023-05-31T14:21:24.879Z,32.29
2023-05-31T14:23:52.729Z,32.08
2023-05-31T14:26:21.156Z,32.13
2023-05-31T14:28:48.919Z,31.93
2023-05-31T14:31:17.203Z,31.80
2023-05-31T14:33:45.565Z,32.03
2023-05-31T14:36:13.965Z,32.13
2023-05-31T14:38:42.256Z,31.98
2023-05-31T14:41:10.142Z,31.99
2023-05-31T14:43:38.201Z,31.58
2023-05-31T14:46:06.306Z,31.83
2023-05-31T14:48:34.436Z,31.88
2023-05-31T14:51:02.612Z,31.92
2023-05-31T14:53:31.434Z,31.75
2023-05-31T14:58:34.522Z,32.18
2023-05-31T15:01:02.642Z,32.57
2023-05-31T15:03:30.739Z,33.17
2023-05-31T15:05:58.893Z,33.30
2023-05-31T15:08:26.913Z,32.91
2023-05-31T15:10:55.079Z,33.00
2023-05-31T15:13:26.252Z,33.22
2023-05-31T15:15:54.153Z,33.22
2023-05-31T15:18:22.383Z,33.02
2023-05-31T15:20:50.690Z,33.01
2023-05-31T15:23:26.436Z,32.51
2023-05-31T15:25:54.639Z,32.59
2023-05-31T15:28:22.857Z,32.64
2023-05-31T15:30:54.595Z,32.64
2023-05-31T15:33:22.954Z,32.92
2023-05-31T15:35:51.244Z,33.18
2023-05-31T15:38:19.610Z,32.92
2023-05-31T15:40:47.941Z,32.47
2023-05-31T15:43:18.114Z,32.46
2023-05-31T15:45:48.172Z,32.56
2023-05-31T15:48:16.451Z,32.66
2023-05-31T15:50:48.477Z,32.58
2023-05-31T15:53:17.322Z,32.66
2023-05-31T15:55:47.247Z,32.91
2023-05-31T15:58:15.875Z,33.32
2023-05-31T16:00:47.036Z,33.40
2023-05-31T16:03:18.698Z,33.39
2023-05-31T16:05:50.382Z,33.42
2023-05-31T16:08:18.504Z,33.38
2023-05-31T16:10:47.016Z,33.54
2023-05-31T16:13:15.598Z,33.69
2023-05-31T16:15:44.307Z,33.71
2023-05-31T16:18:12.694Z,33.62
2023-05-31T16:20:42.731Z,33.53
2023-05-31T16:23:11.176Z,33.89
2023-05-31T16:25:39.276Z,34.22
2023-05-31T16:28:07.833Z,34.19
2023-05-31T16:30:39.465Z,34.34
2023-05-31T16:33:13.288Z,34.64
2023-05-31T16:35:41.535Z,34.40
2023-05-31T16:38:09.774Z,33.98
2023-05-31T16:40:38.302Z,34.02
2023-05-31T16:43:13.343Z,34.18
2023-05-31T16:45:44.662Z,34.38
2023-05-31T16:48:12.940Z,34.58
2023-05-31T16:50:41.642Z,34.93
2023-05-31T16:53:09.966Z,34.94
2023-05-31T16:55:38.564Z,35.20
2023-05-31T16:58:07.530Z,34.90
2023-05-31T17:00:38.786Z,35.10
2023-05-31T17:03:07.209Z,35.20
2023-05-31T17:05:48.186Z,35.24
2023-05-31T17:08:16.411Z,35.21
2023-05-31T17:10:45.568Z,35.21
2023-05-31T17:13:14.415Z,35.45
2023-05-31T17:15:42.797Z,35.66
2023-05-31T17:18:11.156Z,35.91
2023-05-31T17:20:40.222Z,36.19
2023-05-31T17:23:08.672Z,36.48
2023-05-31T17:25:37.615Z,37.19
2023-05-31T17:28:05.974Z,37.94
2023-05-31T17:30:34.328Z,38.28
2023-05-31T17:33:02.506Z,38.76
2023-05-31T17:35:30.847Z,39.08
2023-05-31T17:37:58.956Z,39.58
2023-05-31T17:40:27.473Z,39.86
2023-05-31T17:42:55.567Z,40.25
2023-05-31T17:45:24.076Z,40.31
2023-05-31T17:47:53.464Z,40.56
2023-05-31T17:50:21.760Z,40.81
2023-05-31T17:52:49.917Z,40.91
2023-05-31T17:55:19.958Z,40.82
2023-05-31T17:57:48.397Z,40.83
2023-05-31T18:00:20.167Z,40.94
2023-05-31T18:02:48.664Z,40.91
2023-05-31T18:05:17.450Z,40.96
2023-05-31T18:07:46.389Z,41.20
2023-05-31T18:10:14.585Z,41.55
2023-05-31T18:12:44.048Z,42.06
2023-05-31T18:15:14.190Z,42.28
2023-05-31T18:17:42.409Z,42.54
2023-05-31T18:20:10.965Z,42.95
2023-05-31T18:22:39.119Z,43.47
2023-05-31T18:25:07.785Z,43.99
2023-05-31T18:27:36.521Z,43.98
2023-05-31T18:30:05.253Z,44.34
2023-05-31T18:32:34.685Z,44.62
2023-05-31T18:35:02.890Z,45.50
2023-05-31T18:37:30.934Z,45.85
2023-05-31T18:39:59.098Z,45.89
2023-05-31T18:42:27.160Z,46.35
2023-05-31T18:44:55.432Z,46.84
2023-05-31T18:47:24.069Z,47.60
2023-05-31T18:49:53.532Z,47.63
2023-05-31T18:52:21.661Z,48.41
2023-05-31T18:54:49.729Z,48.66
2023-05-31T18:57:18.943Z,49.05
2023-05-31T18:59:47.548Z,49.62
2023-05-31T19:02:15.743Z,49.61
2023-05-31T19:04:44.174Z,50.69
2023-05-31T19:07:12.380Z,50.33
2023-05-31T19:09:40.623Z,50.62
2023-05-31T19:12:22.570Z,50.41
2023-05-31T19:14:58.623Z,51.66
2023-05-31T19:17:29.470Z,52.19
2023-05-31T19:19:57.806Z,52.58
2023-05-31T19:22:25.955Z,53.07
2023-05-31T19:24:54.238Z,52.92
2023-05-31T19:27:22.319Z,52.74
2023-05-31T19:29:50.489Z,53.44
2023-05-31T19:32:18.663Z,54.24
2023-05-31T19:34:47.973Z,54.63
2023-05-31T19:37:16.312Z,55.35
2023-05-31T19:39:45.933Z,55.39
2023-05-31T19:42:14.224Z,56.10
2023-05-31T19:44:43.636Z,56.27
2023-05-31T19:47:11.962Z,56.18
2023-05-31T19:49:39.998Z,56.16
2023-05-31T19:52:11.056Z,55.94
2023-05-31T19:54:39.266Z,55.91
2023-05-31T19:57:08.152Z,55.91
2023-05-31T19:59:37.495Z,55.86
2023-05-31T20:02:06.202Z,56.15
2023-05-31T20:04:35.925Z,56.44
2023-05-31T20:07:04.382Z,56.55
2023-05-31T20:09:32.983Z,56.88
2023-05-31T20:12:01.624Z,57.24
2023-05-31T20:14:29.904Z,57.32
2023-05-31T20:17:00.163Z,57.86
2023-05-31T20:19:29.860Z,58.13
2023-05-31T20:21:59.317Z,58.50
2023-05-31T20:24:27.519Z,59.29
2023-05-31T20:26:55.746Z,59.56
2023-05-31T20:29:23.991Z,59.54
2023-05-31T20:31:52.291Z,59.41
2023-05-31T20:34:20.955Z,59.51
2023-05-31T20:36:49.048Z,59.25
2023-05-31T20:39:19.067Z,59.80
2023-05-31T20:41:47.314Z,60.25
2023-05-31T20:44:16.681Z,60.57
2023-05-31T20:46:44.902Z,60.34
2023-05-31T20:49:13.216Z,60.54
2023-05-31T20:51:41.369Z,61.03
2023-05-31T20:54:09.352Z,60.99
2023-05-31T20:56:38.028Z,61.08
2023-05-31T20:59:06.661Z,61.29
2023-05-31T21:01:35.016Z,61.52
2023-05-31T21:04:03.487Z,61.66
2023-05-31T21:06:34.156Z,61.39
2023-05-31T21:09:03.096Z,61.60
2023-05-31T21:11:31.175Z,61.97
2023-05-31T21:13:59.525Z,61.97
2023-05-31T21:16:27.785Z,61.66
2023-05-31T21:18:55.950Z,62.14
2023-05-31T21:21:25.171Z,62.05
2023-05-31T21:23:53.526Z,62.74
2023-05-31T21:26:24.505Z,63.99
2023-05-31T21:28:52.579Z,69.06
2023-05-31T21:31:23.961Z,69.24
2023-05-31T21:33:52.206Z,67.21
2023-05-31T21:36:20.562Z,66.07
2023-05-31T21:38:48.573Z,64.58
2023-05-31T21:41:16.742Z,63.65
2023-05-31T21:43:44.809Z,61.33
2023-05-31T21:46:12.896Z,59.82
2023-05-31T21:48:41.238Z,57.12
2023-05-31T21:51:09.374Z,54.83
2023-05-31T21:53:37.474Z,54.10
2023-05-31T21:56:06.283Z,54.45
2023-05-31T21:58:34.448Z,55.53
2023-05-31T22:01:02.749Z,56.45
2023-05-31T22:03:31.033Z,56.18
2023-05-31T22:05:59.187Z,56.12
2023-05-31T22:08:27.373Z,57.67
2023-05-31T22:10:55.755Z,59.30
2023-05-31T22:13:24.036Z,59.40
2023-05-31T22:15:52.524Z,59.02
2023-05-31T22:18:23.386Z,59.29
2023-05-31T22:20:56.342Z,59.90
2023-05-31T22:23:25.123Z,60.29
2023-05-31T22:25:54.937Z,61.19
2023-05-31T22:28:23.312Z,61.96
2023-05-31T22:30:53.882Z,63.77
2023-05-31T22:33:22.206Z,66.77
2023-05-31T22:35:50.312Z,63.31
2023-05-31T22:38:18.452Z,62.34
2023-05-31T22:40:46.588Z,62.83
2023-05-31T22:43:14.864Z,62.87
2023-05-31T22:45:43.264Z,62.70
2023-05-31T22:48:11.497Z,61.97
2023-05-31T22:50:40.156Z,60.41
2023-05-31T22:53:10.040Z,57.95
2023-05-31T22:55:38.224Z,54.26
2023-05-31T22:58:06.602Z,54.82
2023-05-31T23:00:34.803Z,55.85
2023-05-31T23:03:03.261Z,56.10
2023-05-31T23:05:32.023Z,56.75
2023-05-31T23:08:02.917Z,57.35
2023-05-31T23:10:33.347Z,58.81
2023-05-31T23:13:02.740Z,59.56
2023-05-31T23:15:36.854Z,60.33
2023-05-31T23:18:08.643Z,60.56
2023-05-31T23:20:38.873Z,60.09
2023-05-31T23:23:09.934Z,61.82
2023-05-31T23:25:38.017Z,60.77
2023-05-31T23:28:06.398Z,60.09
2023-05-31T23:30:34.524Z,60.13
2023-05-31T23:33:02.710Z,62.08
2023-05-31T23:35:30.894Z,64.28
2023-05-31T23:37:59.176Z,66.55
2023-05-31T23:40:27.253Z,68.51
2023-05-31T23:42:55.278Z,66.74
2023-05-31T23:45:23.762Z,66.16
2023-05-31T23:47:52.001Z,64.59
2023-05-31T23:50:20.443Z,63.56
2023-05-31T23:52:48.630Z,62.23
2023-05-31T23:55:16.948Z,61.39
2023-05-31T23:57:49.063Z,60.65
